Time;durP1;ratioP1;P1;durP2;ratioP2;P2;SDS_P1;SDS_P2;PMS_P1;PMS_P2;Temp;Humidity;BMP_temperature;BMP_pressure;BME280_temperature;BME280_humidity;BME280_pressure;Samples;Min_cycle;Max_cycle;Signal;HPM_P1;HPM_P2
2023/05/21 00:00:29;;;;;;;15.35;13.00;;;18.10;99.90;;;;;;5024791;28;20053;-68
2023/05/21 00:02:57;;;;;;;16.20;12.27;;;18.10;99.90;;;;;;5024614;28;20049;-67
2023/05/21 00:05:25;;;;;;;15.18;12.63;;;18.10;99.90;;;;;;5023338;28;20056;-68
2023/05/21 00:07:53;;;;;;;13.57;12.18;;;18.00;99.90;;;;;;5024356;28;20048;-67
2023/05/21 00:10:21;;;;;;;14.93;12.05;;;18.10;99.90;;;;;;5026781;28;20045;-68
2023/05/21 00:12:48;;;;;;;16.02;12.95;;;18.00;99.90;;;;;;5021624;28;20092;-68
2023/05/21 00:15:16;;;;;;;15.77;12.30;;;18.00;99.90;;;;;;5025887;28;20045;-68
2023/05/21 00:17:44;;;;;;;15.05;11.20;;;17.90;99.90;;;;;;5001955;28;20037;-67
2023/05/21 00:20:12;;;;;;;13.68;11.85;;;18.00;99.90;;;;;;4990959;28;20053;-67
2023/05/21 00:22:41;;;;;;;18.27;12.60;;;18.00;99.90;;;;;;5025469;28;20048;-67
2023/05/21 00:25:10;;;;;;;17.23;13.43;;;17.90;99.90;;;;;;5005657;28;20053;-67
2023/05/21 00:27:37;;;;;;;18.17;13.88;;;17.90;99.90;;;;;;5023334;28;20422;-67
2023/05/21 00:30:05;;;;;;;17.70;12.85;;;17.90;99.90;;;;;;5003686;28;20052;-67
2023/05/21 00:32:33;;;;;;;15.10;12.40;;;17.90;99.90;;;;;;4981405;28;20532;-67
2023/05/21 00:35:00;;;;;;;15.30;12.25;;;17.90;99.90;;;;;;5000468;28;20038;-67
2023/05/21 00:37:31;;;;;;;13.50;11.93;;;17.90;99.90;;;;;;5010619;28;20092;-67
2023/05/21 00:40:07;;;;;;;14.93;13.10;;;17.90;99.90;;;;;;5001100;28;20524;-67
2023/05/21 00:42:38;;;;;;;16.50;12.65;;;17.90;99.90;;;;;;5009865;28;20123;-68
2023/05/21 00:45:07;;;;;;;17.67;12.95;;;17.90;99.90;;;;;;4985443;28;20070;-67
2023/05/21 00:47:35;;;;;;;15.98;12.57;;;17.90;99.90;;;;;;4996863;28;20517;-66
2023/05/21 00:50:03;;;;;;;16.02;13.43;;;17.90;99.90;;;;;;5012578;28;20525;-68
2023/05/21 00:52:31;;;;;;;17.27;12.60;;;17.80;99.90;;;;;;5002590;28;20096;-67
2023/05/21 00:54:58;;;;;;;13.82;11.65;;;17.80;99.90;;;;;;5007287;28;20041;-68
2023/05/21 00:57:26;;;;;;;15.05;12.43;;;17.80;99.90;;;;;;5014863;28;20428;-67
2023/05/21 00:59:53;;;;;;;15.50;13.32;;;17.80;99.90;;;;;;5009892;28;20399;-67
2023/05/21 01:02:22;;;;;;;13.73;12.00;;;17.70;99.90;;;;;;4995868;28;20511;-67
2023/05/21 01:04:54;;;;;;;15.05;12.68;;;17.70;99.90;;;;;;4959621;28;20082;-68
2023/05/21 01:07:22;;;;;;;14.65;12.60;;;17.70;99.90;;;;;;5019296;28;20050;-67
2023/05/21 01:09:49;;;;;;;16.15;12.85;;;17.70;99.90;;;;;;5017759;28;20046;-71
2023/05/21 01:12:18;;;;;;;17.52;12.65;;;17.60;99.90;;;;;;4999265;28;20120;-68
2023/05/21 01:14:46;;;;;;;16.50;12.30;;;17.60;99.90;;;;;;4976429;28;20050;-68
2023/05/21 01:17:15;;;;;;;14.27;11.70;;;17.60;99.90;;;;;;5003611;28;20109;-68
2023/05/21 01:19:43;;;;;;;14.73;12.35;;;17.60;99.90;;;;;;5000858;28;20056;-68
2023/05/21 01:22:13;;;;;;;14.52;12.43;;;17.50;99.90;;;;;;5010072;28;20446;-68
2023/05/21 01:24:46;;;;;;;17.70;12.73;;;17.50;99.90;;;;;;5000767;28;20083;-69
2023/05/21 01:27:13;;;;;;;16.20;12.85;;;17.50;99.90;;;;;;5011930;28;20042;-68
2023/05/21 01:29:41;;;;;;;16.83;12.63;;;17.50;99.90;;;;;;5002789;28;20302;-68
2023/05/21 01:32:29;;;;;;;16.15;12.63;;;17.40;99.90;;;;;;5018318;28;20070;-67
2023/05/21 01:35:08;;;;;;;14.38;12.73;;;17.40;99.90;;;;;;4996900;28;20046;-68
2023/05/21 01:37:44;;;;;;;15.32;12.68;;;17.40;99.90;;;;;;5016776;28;20052;-67
2023/05/21 01:40:34;;;;;;;14.73;12.52;;;17.40;99.90;;;;;;4988381;28;20041;-67
2023/05/21 01:43:03;;;;;;;17.38;12.35;;;17.30;99.90;;;;;;5013213;28;20073;-67
2023/05/21 01:45:35;;;;;;;16.17;12.82;;;17.30;99.90;;;;;;4994892;28;20050;-67
2023/05/21 01:48:04;;;;;;;15.20;12.40;;;17.30;99.90;;;;;;5013858;28;20077;-67
2023/05/21 01:50:35;;;;;;;16.38;12.80;;;17.20;99.90;;;;;;4995423;28;20046;-70
2023/05/21 01:53:04;;;;;;;15.18;12.55;;;17.20;99.90;;;;;;5000530;28;20052;-67
2023/05/21 01:55:32;;;;;;;15.43;12.40;;;17.10;99.90;;;;;;5012304;28;20079;-69
2023/05/21 01:58:00;;;;;;;15.75;12.35;;;17.10;99.90;;;;;;4978153;28;20038;-67
2023/05/21 02:00:31;;;;;;;15.35;12.63;;;17.10;99.90;;;;;;4993880;28;20286;-68
2023/05/21 02:02:58;;;;;;;13.82;12.32;;;17.10;99.90;;;;;;5012277;28;20045;-67
2023/05/21 02:05:26;;;;;;;14.15;11.93;;;17.10;99.90;;;;;;5024554;28;20038;-67
2023/05/21 02:07:53;;;;;;;14.73;12.57;;;17.00;99.90;;;;;;4968206;28;20862;-67
2023/05/21 02:10:21;;;;;;;15.82;12.32;;;17.00;99.90;;;;;;4997595;28;20100;-67
2023/05/21 02:12:50;;;;;;;17.02;12.85;;;17.00;99.90;;;;;;5003089;28;20564;-66
2023/05/21 02:15:17;;;;;;;18.38;13.07;;;16.90;99.90;;;;;;4986229;28;20132;-66
2023/05/21 02:17:45;;;;;;;14.25;12.75;;;16.90;99.90;;;;;;4992389;28;20104;-67
2023/05/21 02:20:13;;;;;;;15.63;12.70;;;16.90;99.90;;;;;;5003626;28;20042;-68
2023/05/21 02:22:43;;;;;;;14.82;11.95;;;16.80;99.90;;;;;;4963583;28;20049;-66
2023/05/21 02:25:12;;;;;;;14.32;12.23;;;16.80;99.90;;;;;;4994808;28;20141;-68
2023/05/21 02:27:41;;;;;;;16.02;12.40;;;16.80;99.90;;;;;;5000806;28;20122;-69
2023/05/21 02:30:11;;;;;;;17.38;13.40;;;16.80;99.90;;;;;;5008197;28;20038;-68
2023/05/21 02:32:41;;;;;;;16.70;13.57;;;16.80;99.90;;;;;;5011023;28;20516;-68
2023/05/21 02:35:10;;;;;;;16.65;13.25;;;16.80;99.90;;;;;;4977375;28;20509;-67
2023/05/21 02:37:44;;;;;;;17.65;13.50;;;16.70;99.90;;;;;;5007485;28;20049;-68
2023/05/21 02:40:12;;;;;;;14.02;12.48;;;16.70;99.90;;;;;;5011461;28;20057;-68
2023/05/21 02:42:40;;;;;;;17.23;13.20;;;16.70;99.90;;;;;;4993020;28;20042;-68
2023/05/21 02:45:12;;;;;;;16.33;13.63;;;16.60;99.90;;;;;;4993439;28;20406;-69
2023/05/21 02:47:41;;;;;;;17.58;13.77;;;16.70;99.90;;;;;;4986480;28;20101;-68
2023/05/21 02:50:09;;;;;;;17.35;13.02;;;16.70;99.90;;;;;;4986197;28;20152;-68
2023/05/21 02:52:52;;;;;;;16.00;13.20;;;16.70;99.90;;;;;;4993231;28;20470;-68
2023/05/21 02:55:20;;;;;;;15.63;13.18;;;16.70;99.90;;;;;;4999471;28;20042;-69
2023/05/21 02:57:47;;;;;;;15.35;13.07;;;16.70;99.90;;;;;;5024541;28;20151;-69
2023/05/21 03:00:15;;;;;;;15.88;12.95;;;16.60;99.90;;;;;;4992900;28;20128;-68
2023/05/21 03:02:43;;;;;;;16.58;13.48;;;16.60;99.90;;;;;;4975385;28;20050;-68
2023/05/21 03:05:11;;;;;;;16.58;13.07;;;16.60;99.90;;;;;;4992939;28;20552;-71
2023/05/21 03:07:38;;;;;;;16.98;13.85;;;16.60;99.90;;;;;;5004603;28;20452;-67
2023/05/21 03:10:06;;;;;;;16.55;13.07;;;16.60;99.90;;;;;;4984494;28;20085;-68
2023/05/21 03:12:35;;;;;;;14.90;13.02;;;16.60;99.90;;;;;;4998121;28;20050;-66
2023/05/21 03:15:03;;;;;;;17.88;13.27;;;16.60;99.90;;;;;;5020496;28;20070;-67
2023/05/21 03:17:30;;;;;;;16.75;13.90;;;16.60;99.90;;;;;;4997495;28;20247;-66
2023/05/21 03:19:58;;;;;;;21.85;13.85;;;16.50;99.90;;;;;;5014355;28;20091;-67
2023/05/21 03:22:25;;;;;;;15.85;13.70;;;16.50;99.90;;;;;;4998644;28;20124;-67
2023/05/21 03:24:53;;;;;;;17.42;14.15;;;16.60;99.90;;;;;;5002255;28;20042;-69
2023/05/21 03:27:20;;;;;;;16.33;13.88;;;16.50;99.90;;;;;;4991769;28;20461;-68
2023/05/21 03:29:48;;;;;;;18.63;14.40;;;16.50;99.90;;;;;;5017177;28;20137;-69
2023/05/21 03:32:16;;;;;;;16.58;13.57;;;16.50;99.90;;;;;;4993449;28;20121;-69
2023/05/21 03:34:46;;;;;;;17.13;13.73;;;16.50;99.90;;;;;;4998902;28;20052;-69
2023/05/21 03:37:14;;;;;;;21.42;14.55;;;16.50;99.90;;;;;;4996019;28;20070;-66
2023/05/21 03:39:42;;;;;;;16.70;13.70;;;16.50;99.90;;;;;;4991631;28;20414;-68
2023/05/21 03:42:09;;;;;;;18.40;14.30;;;16.50;99.90;;;;;;4982428;28;20061;-69
2023/05/21 03:44:50;;;;;;;16.77;14.10;;;16.50;99.90;;;;;;4993886;28;20519;-66
2023/05/21 03:47:29;;;;;;;18.75;14.40;;;16.50;99.90;;;;;;5008774;28;20053;-69
2023/05/21 03:49:58;;;;;;;17.38;14.05;;;16.40;99.90;;;;;;4992801;28;20052;-69
2023/05/21 03:52:26;;;;;;;17.60;13.40;;;16.50;99.90;;;;;;5002904;28;20123;-68
2023/05/21 03:54:54;;;;;;;19.58;14.45;;;16.50;99.90;;;;;;4985000;28;20163;-68
2023/05/21 03:57:21;;;;;;;18.88;14.73;;;16.50;99.90;;;;;;5000659;28;20068;-68
2023/05/21 03:59:48;;;;;;;22.27;14.60;;;16.50;99.90;;;;;;5009019;28;20092;-68
2023/05/21 04:02:16;;;;;;;18.23;14.38;;;16.50;99.90;;;;;;5009398;28;20046;-68
2023/05/21 04:04:44;;;;;;;17.98;14.90;;;16.50;99.90;;;;;;4997787;28;20051;-68
2023/05/21 04:07:14;;;;;;;17.85;14.50;;;16.50;99.90;;;;;;5005835;28;20042;-68
2023/05/21 04:09:41;;;;;;;19.02;14.20;;;16.50;99.90;;;;;;5000496;28;20438;-68
2023/05/21 04:12:08;;;;;;;17.35;13.70;;;16.50;99.90;;;;;;4992094;28;20050;-68
2023/05/21 04:14:36;;;;;;;16.63;13.80;;;16.50;99.90;;;;;;5009708;28;20129;-68
2023/05/21 04:17:04;;;;;;;19.08;15.20;;;16.60;99.90;;;;;;4992273;28;20077;-68
2023/05/21 04:19:32;;;;;;;17.40;14.60;;;16.60;99.90;;;;;;5000887;28;20417;-68
2023/05/21 04:22:02;;;;;;;17.60;14.40;;;16.60;99.90;;;;;;4993528;28;20137;-68
2023/05/21 04:24:30;;;;;;;19.20;14.95;;;16.70;99.90;;;;;;4982975;28;20138;-71
2023/05/21 04:27:06;;;;;;;18.75;14.52;;;16.70;99.90;;;;;;4993007;28;20112;-67
2023/05/21 04:29:33;;;;;;;22.92;15.70;;;16.70;99.90;;;;;;4999550;28;20053;-67
2023/05/21 04:32:00;;;;;;;17.05;13.77;;;16.70;99.90;;;;;;4992843;28;20045;-67
2023/05/21 04:34:28;;;;;;;18.20;14.55;;;16.80;99.90;;;;;;5001885;28;20156;-67
2023/05/21 04:36:56;;;;;;;16.77;14.23;;;16.80;99.90;;;;;;5002476;28;20128;-67
2023/05/21 04:39:24;;;;;;;18.00;14.10;;;16.90;99.90;;;;;;5003914;28;20065;-67
2023/05/21 04:41:53;;;;;;;19.45;15.05;;;16.90;99.90;;;;;;4984141;28;20193;-67
2023/05/21 04:44:21;;;;;;;19.75;15.57;;;16.90;99.90;;;;;;4976450;28;20034;-68
2023/05/21 04:46:49;;;;;;;17.02;14.55;;;17.00;99.90;;;;;;4993072;28;20057;-67
2023/05/21 04:49:17;;;;;;;18.70;15.00;;;17.10;99.90;;;;;;4998058;28;20042;-67
2023/05/21 04:51:45;;;;;;;20.10;15.13;;;17.10;99.90;;;;;;5000686;28;20426;-68
2023/05/21 04:54:13;;;;;;;21.00;15.25;;;17.10;99.90;;;;;;5014119;28;20104;-68
2023/05/21 04:56:40;;;;;;;19.20;15.20;;;17.20;99.90;;;;;;4994479;28;20555;-68
2023/05/21 04:59:07;;;;;;;18.83;14.82;;;17.30;99.90;;;;;;5003248;28;20058;-68
2023/05/21 05:01:37;;;;;;;17.65;14.35;;;17.30;99.90;;;;;;4998119;28;20057;-69
2023/05/21 05:04:05;;;;;;;19.63;14.90;;;17.40;99.90;;;;;;5003192;28;20046;-69
2023/05/21 05:06:32;;;;;;;18.45;14.50;;;17.40;99.90;;;;;;4995474;28;20034;-68
2023/05/21 05:08:59;;;;;;;18.33;14.43;;;17.50;99.90;;;;;;5013841;28;20510;-68
2023/05/21 05:11:27;;;;;;;18.30;13.73;;;17.60;99.90;;;;;;5003179;28;20073;-68
2023/05/21 05:13:55;;;;;;;18.23;14.05;;;17.70;99.90;;;;;;5001600;28;20046;-67
2023/05/21 05:16:24;;;;;;;18.38;13.73;;;17.80;99.90;;;;;;5011742;28;20485;-68
2023/05/21 05:18:55;;;;;;;17.55;13.90;;;17.90;99.90;;;;;;5001467;28;20046;-68
2023/05/21 05:21:22;;;;;;;18.73;14.02;;;18.00;99.90;;;;;;5002577;28;20077;-68
2023/05/21 05:23:50;;;;;;;19.23;14.40;;;18.00;99.90;;;;;;5005353;28;20041;-69
2023/05/21 05:26:21;;;;;;;17.08;13.98;;;18.10;99.90;;;;;;4990588;28;20062;-71
2023/05/21 05:28:49;;;;;;;18.52;14.48;;;18.10;99.90;;;;;;5007140;28;20120;-68
2023/05/21 05:31:17;;;;;;;16.15;13.18;;;18.20;99.90;;;;;;4974540;28;20414;-68
2023/05/21 05:33:44;;;;;;;18.00;14.80;;;18.30;99.90;;;;;;5000299;28;20564;-67
2023/05/21 05:36:12;;;;;;;14.80;12.43;;;18.30;99.90;;;;;;4995552;28;20076;-67
2023/05/21 05:38:39;;;;;;;17.90;13.77;;;18.30;99.90;;;;;;5014714;28;20394;-68
2023/05/21 05:41:06;;;;;;;16.45;13.75;;;18.50;99.90;;;;;;4998877;28;20045;-65
2023/05/21 05:43:34;;;;;;;17.83;14.00;;;18.70;99.90;;;;;;4998180;28;20065;-69
2023/05/21 05:46:02;;;;;;;15.00;12.88;;;18.90;99.90;;;;;;5002186;28;20386;-68
2023/05/21 05:48:30;;;;;;;16.17;13.48;;;19.10;99.90;;;;;;5012074;28;20061;-67
2023/05/21 05:50:58;;;;;;;17.20;13.45;;;19.20;99.90;;;;;;4996420;28;20045;-67
2023/05/21 05:53:25;;;;;;;16.45;13.55;;;19.30;99.90;;;;;;5005654;28;20469;-68
2023/05/21 05:55:53;;;;;;;17.73;15.07;;;19.30;99.90;;;;;;4999292;28;20052;-66
2023/05/21 05:58:21;;;;;;;21.08;16.02;;;19.10;99.90;;;;;;4983316;28;20050;-67
2023/05/21 06:00:56;;;;;;;17.60;14.25;;;19.10;99.90;;;;;;5005546;28;20100;-66
2023/05/21 06:03:25;;;;;;;18.17;14.25;;;19.30;99.90;;;;;;4992207;28;20128;-68
2023/05/21 06:05:53;;;;;;;17.17;13.43;;;19.40;99.90;;;;;;5005454;28;20049;-69
2023/05/21 06:08:20;;;;;;;18.05;13.93;;;19.60;99.90;;;;;;5001282;28;20037;-69
2023/05/21 06:10:48;;;;;;;15.27;13.68;;;19.80;99.90;;;;;;4997009;28;20576;-68
2023/05/21 06:13:15;;;;;;;17.42;13.25;;;19.90;99.90;;;;;;4989823;28;20041;-68
2023/05/21 06:15:42;;;;;;;19.15;15.13;;;20.00;99.90;;;;;;5009486;28;20042;-68
2023/05/21 06:18:10;;;;;;;17.55;13.90;;;20.00;99.90;;;;;;5026354;28;20125;-68
2023/05/21 06:20:38;;;;;;;18.83;15.63;;;20.20;99.90;;;;;;5010984;28;20420;-68
2023/05/21 06:23:07;;;;;;;14.95;13.38;;;20.20;99.90;;;;;;5000533;28;20041;-66
2023/05/21 06:25:35;;;;;;;15.70;13.50;;;20.30;99.90;;;;;;4978797;28;20140;-68
2023/05/21 06:28:03;;;;;;;16.20;13.77;;;20.40;99.90;;;;;;5004283;28;20091;-68
2023/05/21 06:30:32;;;;;;;19.20;13.95;;;20.50;99.90;;;;;;5008341;28;20037;-67
2023/05/21 06:32:59;;;;;;;17.40;13.80;;;20.50;99.90;;;;;;5010101;28;20053;-67
2023/05/21 06:35:27;;;;;;;17.48;14.48;;;20.60;99.90;;;;;;5021348;28;20120;-67
2023/05/21 06:37:54;;;;;;;16.55;13.88;;;20.70;99.90;;;;;;5004205;28;20042;-68
2023/05/21 06:40:21;;;;;;;15.55;13.85;;;20.90;99.90;;;;;;5005617;28;20182;-68
2023/05/21 06:42:54;;;;;;;19.45;15.05;;;20.90;99.90;;;;;;5008324;28;20135;-67
2023/05/21 06:45:31;;;;;;;14.68;13.02;;;21.00;99.90;;;;;;5022747;28;20053;-68
2023/05/21 06:48:03;;;;;;;16.05;13.70;;;21.10;99.90;;;;;;5005209;28;20033;-66
2023/05/21 06:50:31;;;;;;;16.13;12.35;;;21.20;99.90;;;;;;5007802;28;20050;-67
2023/05/21 06:53:00;;;;;;;14.55;13.00;;;21.10;99.90;;;;;;5007648;28;20069;-66
2023/05/21 06:55:28;;;;;;;14.57;12.57;;;21.30;99.90;;;;;;5007451;28;20041;-67
2023/05/21 06:58:12;;;;;;;15.70;11.80;;;21.30;99.90;;;;;;5004740;28;20104;-68
2023/05/21 07:00:40;;;;;;;15.60;13.27;;;21.40;99.90;;;;;;5001920;28;20053;-66
2023/05/21 07:03:07;;;;;;;14.32;12.57;;;21.40;99.90;;;;;;5001314;28;20092;-68
2023/05/21 07:05:35;;;;;;;14.18;12.68;;;21.50;99.90;;;;;;5009409;28;20464;-67
2023/05/21 07:08:04;;;;;;;14.30;12.75;;;21.50;99.90;;;;;;5009644;28;20596;-67
2023/05/21 07:10:31;;;;;;;15.80;14.07;;;21.70;99.90;;;;;;5006748;28;20404;-67
2023/05/21 07:12:59;;;;;;;17.25;13.65;;;21.80;99.90;;;;;;5024988;28;20115;-68
2023/05/21 07:15:26;;;;;;;18.63;13.52;;;21.90;99.90;;;;;;5004336;28;20517;-67
2023/05/21 07:17:55;;;;;;;14.32;12.60;;;21.90;99.90;;;;;;4987995;28;20073;-67
2023/05/21 07:20:23;;;;;;;15.25;13.38;;;22.00;99.90;;;;;;5009042;28;20049;-67
2023/05/21 07:22:53;;;;;;;15.90;13.30;;;22.00;99.90;;;;;;5005561;28;20073;-68
2023/05/21 07:25:20;;;;;;;16.20;12.88;;;22.10;99.90;;;;;;5022986;28;20157;-67
2023/05/21 07:27:48;;;;;;;18.13;13.13;;;22.20;99.90;;;;;;5010581;28;20073;-68
2023/05/21 07:30:15;;;;;;;14.95;13.07;;;22.30;99.90;;;;;;5008364;28;20069;-68
2023/05/21 07:32:42;;;;;;;15.85;13.32;;;22.30;99.90;;;;;;5006645;28;20049;-68
2023/05/21 07:35:10;;;;;;;14.75;12.48;;;22.40;99.90;;;;;;5005770;28;20053;-67
2023/05/21 07:37:37;;;;;;;16.48;12.50;;;22.30;99.90;;;;;;5010631;28;20045;-69
2023/05/21 07:40:06;;;;;;;14.13;12.63;;;22.30;99.90;;;;;;5004504;28;20045;-68
2023/05/21 07:42:34;;;;;;;14.25;12.38;;;22.50;99.90;;;;;;5009776;28;20068;-68
2023/05/21 07:45:02;;;;;;;14.18;12.68;;;22.70;99.90;;;;;;5005357;28;20033;-67
2023/05/21 07:47:35;;;;;;;16.77;13.52;;;22.80;99.90;;;;;;5008332;28;20049;-67
2023/05/21 07:50:02;;;;;;;15.40;13.38;;;22.90;99.90;;;;;;5002629;28;20053;-67
2023/05/21 07:52:30;;;;;;;17.52;14.00;;;22.90;99.90;;;;;;5007097;28;20066;-67
2023/05/21 07:55:00;;;;;;;15.43;13.15;;;23.00;99.90;;;;;;5023767;28;20045;-69
2023/05/21 07:57:30;;;;;;;16.55;12.13;;;22.90;99.90;;;;;;5004638;28;20052;-66
2023/05/21 08:00:05;;;;;;;14.35;12.02;;;22.90;99.90;;;;;;5007045;28;20124;-68
2023/05/21 08:02:41;;;;;;;17.52;13.68;;;23.00;99.90;;;;;;5021645;28;20413;-68
2023/05/21 08:05:11;;;;;;;15.57;12.70;;;23.30;99.90;;;;;;5007001;28;20048;-68
2023/05/21 08:07:39;;;;;;;14.43;11.70;;;23.30;99.90;;;;;;5008190;28;20042;-67
2023/05/21 08:10:07;;;;;;;13.55;11.50;;;23.20;99.90;;;;;;4990351;28;20068;-67
2023/05/21 08:12:35;;;;;;;13.50;12.10;;;23.20;99.90;;;;;;5011476;28;20139;-67
2023/05/21 08:15:04;;;;;;;16.00;12.10;;;23.30;99.90;;;;;;4998477;28;20135;-69
2023/05/21 08:17:34;;;;;;;13.65;12.00;;;23.40;99.90;;;;;;5015158;28;20077;-67
2023/05/21 08:20:02;;;;;;;12.90;11.52;;;23.50;99.90;;;;;;5005173;28;20140;-69
2023/05/21 08:22:31;;;;;;;13.75;12.20;;;23.50;99.90;;;;;;5020783;28;20050;-68
2023/05/21 08:24:59;;;;;;;14.90;12.45;;;23.50;99.90;;;;;;5009079;28;20052;-69
2023/05/21 08:27:27;;;;;;;13.93;12.13;;;23.70;99.90;;;;;;4997238;28;20069;-68
2023/05/21 08:29:54;;;;;;;14.65;12.25;;;23.80;99.90;;;;;;5013686;28;20089;-67
2023/05/21 08:32:22;;;;;;;14.00;12.50;;;24.00;99.90;;;;;;4999209;28;20038;-69
2023/05/21 08:34:49;;;;;;;12.75;11.45;;;24.10;99.90;;;;;;5011122;28;20046;-68
2023/05/21 08:37:35;;;;;;;15.18;12.43;;;24.10;99.90;;;;;;5013828;28;20121;-69
2023/05/21 08:40:13;;;;;;;14.88;10.68;;;24.20;99.90;;;;;;5005896;28;20042;-68
2023/05/21 08:42:47;;;;;;;15.20;11.48;;;24.30;99.90;;;;;;5002930;28;20112;-69
2023/05/21 08:45:21;;;;;;;14.38;11.10;;;24.40;99.90;;;;;;5007774;28;20511;-68
2023/05/21 08:47:56;;;;;;;15.60;11.40;;;24.50;99.90;;;;;;5003956;28;20045;-63
2023/05/21 08:50:26;;;;;;;13.07;10.70;;;24.50;99.90;;;;;;5008992;28;20042;-69
2023/05/21 08:53:00;;;;;;;14.52;10.30;;;24.50;99.90;;;;;;5017278;28;20049;-67
2023/05/21 08:55:37;;;;;;;13.38;10.95;;;24.70;99.90;;;;;;5027448;28;20062;-69
2023/05/21 08:58:05;;;;;;;13.38;11.20;;;24.80;99.90;;;;;;5016305;28;20099;-68
2023/05/21 09:00:32;;;;;;;12.88;11.50;;;24.90;99.90;;;;;;5002011;28;20121;-65
2023/05/21 09:03:06;;;;;;;13.57;10.82;;;25.10;99.90;;;;;;5016255;28;20056;-63
2023/05/21 09:05:34;;;;;;;14.05;11.43;;;25.10;99.90;;;;;;5008536;28;20538;-69
2023/05/21 09:08:06;;;;;;;15.98;11.00;;;25.20;99.90;;;;;;5013499;28;20148;-68
2023/05/21 09:10:49;;;;;;;11.20;9.98;;;25.30;99.90;;;;;;5011116;28;20046;-63
2023/05/21 09:13:19;;;;;;;13.95;10.63;;;25.30;99.90;;;;;;5010519;28;20409;-67
2023/05/21 09:15:50;;;;;;;12.50;11.18;;;25.50;99.90;;;;;;5004870;28;20125;-63
2023/05/21 09:18:19;;;;;;;12.65;10.70;;;25.60;99.90;;;;;;4992661;28;20041;-68
2023/05/21 09:20:51;;;;;;;13.05;10.57;;;25.50;99.90;;;;;;5014106;28;20042;-67
2023/05/21 09:23:19;;;;;;;15.45;10.98;;;25.80;99.90;;;;;;5000774;28;20502;-64
2023/05/21 09:25:48;;;;;;;13.55;11.43;;;25.90;99.90;;;;;;4986888;28;20548;-62
2023/05/21 09:28:24;;;;;;;12.95;11.27;;;25.70;99.90;;;;;;5003530;28;20053;-63
2023/05/21 09:30:52;;;;;;;14.52;11.10;;;25.90;99.90;;;;;;5012110;28;20141;-67
2023/05/21 09:33:28;;;;;;;13.25;11.23;;;26.00;99.90;;;;;;5008003;28;20049;-67
2023/05/21 09:35:56;;;;;;;13.57;10.95;;;26.10;99.90;;;;;;5005519;28;20042;-67
2023/05/21 09:38:26;;;;;;;12.73;11.15;;;26.30;99.90;;;;;;4995171;28;20119;-67
2023/05/21 09:40:56;;;;;;;11.50;10.23;;;26.20;99.90;;;;;;5012859;28;20513;-68
2023/05/21 09:43:25;;;;;;;12.95;11.65;;;26.30;99.90;;;;;;5004904;28;20169;-67
2023/05/21 09:45:55;;;;;;;16.08;11.95;;;26.40;99.90;;;;;;4978506;28;20088;-64
2023/05/21 09:48:33;;;;;;;13.35;10.70;;;26.30;99.90;;;;;;5007867;28;20046;-64
2023/05/21 09:51:15;;;;;;;13.18;11.75;;;26.00;99.90;;;;;;5003703;28;20046;-64
2023/05/21 09:53:43;;;;;;;13.20;10.95;;;25.90;99.90;;;;;;4994759;28;20123;-68
2023/05/21 09:56:10;;;;;;;15.00;10.65;;;25.90;99.90;;;;;;5002729;28;20524;-69
2023/05/21 09:58:38;;;;;;;12.73;11.40;;;26.00;99.90;;;;;;4994758;28;20046;-69
2023/05/21 10:01:07;;;;;;;13.32;11.88;;;26.10;99.90;;;;;;4983029;28;20132;-67
2023/05/21 10:03:38;;;;;;;13.18;11.77;;;26.40;99.90;;;;;;5013105;28;20049;-66
2023/05/21 10:06:11;;;;;;;13.00;11.77;;;26.70;99.90;;;;;;5015002;28;20049;-68
2023/05/21 10:08:43;;;;;;;14.02;12.38;;;26.80;99.90;;;;;;5013017;28;20070;-68
2023/05/21 10:11:11;;;;;;;13.65;12.10;;;26.80;99.90;;;;;;5013792;28;20525;-68
2023/05/21 10:13:47;;;;;;;13.70;11.52;;;27.10;99.90;;;;;;5008990;28;20066;-68
2023/05/21 10:16:15;;;;;;;15.18;12.00;;;27.40;99.90;;;;;;5003509;28;20081;-68
2023/05/21 10:18:45;;;;;;;13.98;11.52;;;27.40;99.90;;;;;;5011177;28;20056;-69
2023/05/21 10:21:13;;;;;;;12.25;10.95;;;27.40;99.90;;;;;;5011380;28;20081;-68
2023/05/21 10:23:42;;;;;;;13.65;12.05;;;27.40;99.90;;;;;;5009790;28;20468;-68
2023/05/21 10:26:14;;;;;;;14.25;12.77;;;27.40;99.90;;;;;;5011861;28;20517;-68
2023/05/21 10:28:43;;;;;;;13.27;11.93;;;27.40;99.90;;;;;;5006802;28;20084;-67
2023/05/21 10:31:11;;;;;;;15.57;12.48;;;27.60;99.90;;;;;;5008529;28;20053;-69
2023/05/21 10:33:40;;;;;;;16.02;12.18;;;27.70;99.90;;;;;;5018343;28;20050;-66
2023/05/21 10:36:09;;;;;;;12.70;11.38;;;27.70;99.90;;;;;;5000784;28;20042;-68
2023/05/21 10:38:37;;;;;;;13.65;12.27;;;27.70;99.90;;;;;;5011797;28;20049;-68
2023/05/21 10:41:06;;;;;;;13.65;12.00;;;28.00;99.90;;;;;;5011089;28;20038;-67
2023/05/21 10:43:39;;;;;;;13.82;11.70;;;27.80;99.90;;;;;;5007622;28;20104;-69
2023/05/21 10:46:10;;;;;;;14.10;11.73;;;27.90;99.90;;;;;;5021760;28;20103;-66
2023/05/21 10:48:40;;;;;;;15.40;11.68;;;28.00;99.90;;;;;;5012331;28;20042;-66
2023/05/21 10:51:19;;;;;;;12.52;11.23;;;28.10;99.90;;;;;;5010786;28;20506;-68
2023/05/21 10:54:19;;;;;;;13.95;11.80;;;28.30;99.90;;;;;;5008783;28;20148;-68
2023/05/21 10:56:50;;;;;;;12.85;11.55;;;28.40;99.90;;;;;;5010355;28;20097;-67
2023/05/21 10:59:28;;;;;;;12.43;11.13;;;28.70;99.90;;;;;;5001370;28;20139;-68
2023/05/21 11:01:56;;;;;;;13.00;11.35;;;29.00;99.90;;;;;;5010411;28;20486;-68
2023/05/21 11:04:27;;;;;;;13.18;11.27;;;29.20;99.90;;;;;;4988585;28;20371;-66
2023/05/21 11:06:57;;;;;;;14.40;11.52;;;29.20;99.90;;;;;;5004077;28;20046;-68
2023/05/21 11:09:25;;;;;;;11.70;10.50;;;29.30;99.90;;;;;;5019771;28;20042;-66
2023/05/21 11:11:57;;;;;;;15.95;11.88;;;29.50;99.90;;;;;;5022998;28;20532;-68
2023/05/21 11:14:25;;;;;;;;;;;29.60;99.90;;;;;;5026735;28;20077;-68
2023/05/21 11:16:53;;;;;;;13.02;10.55;;;29.60;99.90;;;;;;5027178;28;19928;-68
2023/05/21 11:19:21;;;;;;;11.45;10.18;;;29.30;99.90;;;;;;5018811;28;20054;-67
2023/05/21 11:21:53;;;;;;;13.57;9.50;;;29.20;98.10;;;;;;5019646;28;20058;-67
2023/05/21 11:24:24;;;;;;;12.63;9.80;;;29.50;97.60;;;;;;5020244;28;20482;-62
2023/05/21 11:26:57;;;;;;;10.57;9.27;;;29.70;96.90;;;;;;5026712;28;20045;-62
2023/05/21 11:29:39;;;;;;;12.57;8.55;;;29.70;94.60;;;;;;5016510;28;20042;-62
2023/05/21 11:32:08;;;;;;;10.35;8.80;;;29.50;93.20;;;;;;5021795;28;20097;-67
2023/05/21 11:34:39;;;;;;;11.65;9.15;;;29.80;92.70;;;;;;5002206;28;20041;-68
2023/05/21 11:37:39;;;;;;;10.07;8.90;;;30.00;92.10;;;;;;5004986;28;20050;-63
2023/05/21 11:40:18;;;;;;;9.68;8.45;;;30.20;91.40;;;;;;5020191;28;20045;-63
2023/05/21 11:42:50;;;;;;;12.23;9.18;;;30.00;91.10;;;;;;5011787;28;20129;-68
2023/05/21 11:45:23;;;;;;;10.05;8.93;;;30.10;91.00;;;;;;5007692;28;20042;-68
2023/05/21 11:47:53;;;;;;;12.02;9.23;;;30.10;90.40;;;;;;5010692;28;20061;-68
2023/05/21 11:50:20;;;;;;;10.73;9.25;;;30.70;90.50;;;;;;4985599;28;20128;-71
2023/05/21 11:52:49;;;;;;;11.90;9.15;;;30.90;89.80;;;;;;5012963;28;20042;-68
2023/05/21 11:55:24;;;;;;;10.48;9.40;;;31.20;88.20;;;;;;5022172;28;20060;-63
2023/05/21 11:57:54;;;;;;;10.50;8.70;;;31.30;86.70;;;;;;5025015;28;20524;-64
2023/05/21 12:00:23;;;;;;;10.02;8.95;;;31.50;84.70;;;;;;5009459;28;20056;-68
2023/05/21 12:02:51;;;;;;;9.93;8.45;;;31.60;84.40;;;;;;5004752;28;20053;-66
2023/05/21 12:05:19;;;;;;;11.57;8.77;;;31.90;83.30;;;;;;5020582;28;20052;-66
2023/05/21 12:07:49;;;;;;;13.27;9.32;;;32.10;83.10;;;;;;5023185;28;20458;-68
2023/05/21 12:10:21;;;;;;;10.77;8.55;;;32.10;82.20;;;;;;5026177;28;20413;-66
2023/05/21 12:12:49;;;;;;;10.02;9.00;;;31.70;83.60;;;;;;5017187;28;20046;-67
2023/05/21 12:15:25;;;;;;;9.60;8.60;;;31.70;82.90;;;;;;5004444;28;20349;-66
2023/05/21 12:17:53;;;;;;;10.30;8.80;;;31.70;82.80;;;;;;5008193;28;20069;-64
2023/05/21 12:20:21;;;;;;;9.75;8.32;;;31.80;80.30;;;;;;5020282;28;20053;-63
2023/05/21 12:22:49;;;;;;;16.52;8.65;;;31.60;78.30;;;;;;5019354;28;20042;-67
2023/05/21 12:25:18;;;;;;;10.35;7.90;;;31.60;78.20;;;;;;5003574;28;20057;-67
2023/05/21 12:27:49;;;;;;;9.32;8.32;;;31.90;78.00;;;;;;5008154;28;20132;-68
2023/05/21 12:30:16;;;;;;;10.88;8.20;;;32.20;77.30;;;;;;5021875;28;20045;-67
2023/05/21 12:32:44;;;;;;;11.32;8.30;;;32.50;75.30;;;;;;5025150;28;20049;-68
2023/05/21 12:35:23;;;;;;;9.07;8.15;;;33.00;73.70;;;;;;5016031;28;20049;-68
2023/05/21 12:37:51;;;;;;;12.95;8.93;;;33.30;71.70;;;;;;5023987;28;20572;-68
2023/05/21 12:40:19;;;;;;;10.05;8.23;;;33.60;72.80;;;;;;5005734;28;20054;-64